Pagrindinis puslapis
METAR-TAF:

METAR-TAF

Oro uostai :

Kiana, Aliaska, Jungtinės Amerikos Valstijos

platuma: 66-59N, ilguma: 160-26W, Aukštis: 46 m

Dabartinis oras

Ataskaita buvo paskelbta 19 minutes, ne 19:56 UTC
Vėjas 5 kt iš Rytų
Temperatūra -3°C
Drėgmė 100%
Slėgis 1036 hPa
Matomumas: 16.1 km
Su prošvaistėmis ne aukštis 700 ft
Apsiniaukę ne aukštis 3100 ft

METAR: PAIK 221956Z AUTO 09005KT 10SM BKN007 OVC031 M03/M03 A3059 RMK AO2 CIG 005V009 SLP364 T10281033 FZRANO

Laikas: 12:15 (20:15 UTC)


TAF: trūkstamas

Orai ataskaitas ir orų prognozės (METAR, TAF).

turimą stotys yra geltonos ir raudonos taškus žemėlapyje.

Perkelti pele per norėdami pamatyti stoties vardą.

Tada spustelėkite, norėdami matyti oro stebėjimo ir prognozės.

Norėdami pakeisti žemėlapį: spustelėkite ant žalios mygtukų su juodo kryžiaus žemyn,; žalią mygtuką su brūkšneliu, jei norite nutolinti; arba žalių rodyklių gretimoms žemėlapius.


METAR-TAF: